sensor_id;sensor_type;location;lat;lon;timestamp;P1;durP1;ratioP1;P2;durP2;ratioP2
61531;SDS011;47397;48.194;11.632;2023-06-22T00:00:06;10.82;;;3.90;;
61531;SDS011;47397;48.194;11.632;2023-06-22T00:01:07;7.50;;;4.03;;
61531;SDS011;47397;48.194;11.632;2023-06-22T00:02:08;9.35;;;4.13;;
61531;SDS011;47397;48.194;11.632;2023-06-22T00:03:08;5.22;;;3.42;;
61531;SDS011;47397;48.194;11.632;2023-06-22T00:04:10;8.52;;;4.00;;
61531;SDS011;47397;48.194;11.632;2023-06-22T00:05:10;7.85;;;4.05;;
61531;SDS011;47397;48.194;11.632;2023-06-22T00:06:10;8.40;;;4.18;;
61531;SDS011;47397;48.194;11.632;2023-06-22T00:07:11;8.40;;;3.65;;
61531;SDS011;47397;48.194;11.632;2023-06-22T00:08:11;7.15;;;3.90;;
61531;SDS011;47397;48.194;11.632;2023-06-22T00:09:12;7.18;;;3.75;;
61531;SDS011;47397;48.194;11.632;2023-06-22T00:10:13;8.48;;;4.25;;
61531;SDS011;47397;48.194;11.632;2023-06-22T00:11:13;7.78;;;3.90;;
61531;SDS011;47397;48.194;11.632;2023-06-22T00:12:14;8.05;;;4.10;;
61531;SDS011;47397;48.194;11.632;2023-06-22T00:13:14;9.68;;;3.92;;
61531;SDS011;47397;48.194;11.632;2023-06-22T00:14:14;5.60;;;3.40;;
61531;SDS011;47397;48.194;11.632;2023-06-22T00:15:15;7.63;;;4.43;;
61531;SDS011;47397;48.194;11.632;2023-06-22T00:16:15;6.95;;;3.65;;
61531;SDS011;47397;48.194;11.632;2023-06-22T00:17:16;8.55;;;3.90;;
61531;SDS011;47397;48.194;11.632;2023-06-22T00:18:16;7.13;;;3.60;;
61531;SDS011;47397;48.194;11.632;2023-06-22T00:19:18;7.20;;;4.10;;
61531;SDS011;47397;48.194;11.632;2023-06-22T00:20:18;8.30;;;3.70;;
61531;SDS011;47397;48.194;11.632;2023-06-22T00:21:19;8.00;;;4.00;;
61531;SDS011;47397;48.194;11.632;2023-06-22T00:22:19;8.38;;;3.97;;
61531;SDS011;47397;48.194;11.632;2023-06-22T00:23:19;9.98;;;4.18;;
61531;SDS011;47397;48.194;11.632;2023-06-22T00:24:20;5.95;;;4.00;;
61531;SDS011;47397;48.194;11.632;2023-06-22T00:25:21;7.53;;;3.83;;
61531;SDS011;47397;48.194;11.632;2023-06-22T00:26:21;5.90;;;4.18;;
61531;SDS011;47397;48.194;11.632;2023-06-22T00:27:22;6.68;;;3.88;;
61531;SDS011;47397;48.194;11.632;2023-06-22T00:28:22;8.52;;;3.88;;
61531;SDS011;47397;48.194;11.632;2023-06-22T00:29:22;6.45;;;3.78;;
61531;SDS011;47397;48.194;11.632;2023-06-22T00:30:23;7.40;;;3.97;;
61531;SDS011;47397;48.194;11.632;2023-06-22T00:31:23;6.13;;;3.90;;
61531;SDS011;47397;48.194;11.632;2023-06-22T00:32:24;7.35;;;4.40;;
61531;SDS011;47397;48.194;11.632;2023-06-22T00:33:24;4.80;;;3.40;;
61531;SDS011;47397;48.194;11.632;2023-06-22T00:34:26;7.25;;;3.95;;
61531;SDS011;47397;48.194;11.632;2023-06-22T00:35:26;8.57;;;4.10;;
61531;SDS011;47397;48.194;11.632;2023-06-22T00:36:27;8.32;;;4.07;;
61531;SDS011;47397;48.194;11.632;2023-06-22T00:37:27;6.78;;;3.70;;
61531;SDS011;47397;48.194;11.632;2023-06-22T00:38:28;8.50;;;3.97;;
61531;SDS011;47397;48.194;11.632;2023-06-22T00:39:28;6.10;;;3.72;;
61531;SDS011;47397;48.194;11.632;2023-06-22T00:40:29;7.20;;;4.03;;
61531;SDS011;47397;48.194;11.632;2023-06-22T00:41:30;6.80;;;4.10;;
61531;SDS011;47397;48.194;11.632;2023-06-22T00:42:30;8.00;;;4.05;;
61531;SDS011;47397;48.194;11.632;2023-06-22T00:43:31;7.68;;;3.45;;
61531;SDS011;47397;48.194;11.632;2023-06-22T00:44:31;6.32;;;3.60;;
61531;SDS011;47397;48.194;11.632;2023-06-22T00:45:31;7.72;;;3.63;;
61531;SDS011;47397;48.194;11.632;2023-06-22T00:46:32;8.07;;;3.63;;
61531;SDS011;47397;48.194;11.632;2023-06-22T00:47:32;5.97;;;3.53;;
61531;SDS011;47397;48.194;11.632;2023-06-22T00:48:34;8.07;;;3.90;;
61531;SDS011;47397;48.194;11.632;2023-06-22T00:49:36;8.82;;;3.50;;
61531;SDS011;47397;48.194;11.632;2023-06-22T00:50:36;6.80;;;3.65;;
61531;SDS011;47397;48.194;11.632;2023-06-22T00:51:37;5.45;;;3.40;;
61531;SDS011;47397;48.194;11.632;2023-06-22T00:52:38;5.95;;;3.55;;
61531;SDS011;47397;48.194;11.632;2023-06-22T00:53:38;5.32;;;3.53;;
61531;SDS011;47397;48.194;11.632;2023-06-22T00:54:39;8.40;;;3.90;;
61531;SDS011;47397;48.194;11.632;2023-06-22T00:55:41;9.48;;;3.40;;
61531;SDS011;47397;48.194;11.632;2023-06-22T00:56:42;5.90;;;3.33;;
61531;SDS011;47397;48.194;11.632;2023-06-22T00:57:43;5.22;;;3.25;;
61531;SDS011;47397;48.194;11.632;2023-06-22T00:58:45;5.85;;;3.90;;
61531;SDS011;47397;48.194;11.632;2023-06-22T00:59:45;6.13;;;3.40;;
61531;SDS011;47397;48.194;11.632;2023-06-22T01:00:48;6.32;;;2.80;;
61531;SDS011;47397;48.194;11.632;2023-06-22T01:01:48;7.30;;;3.58;;
61531;SDS011;47397;48.194;11.632;2023-06-22T01:02:49;5.28;;;3.25;;
61531;SDS011;47397;48.194;11.632;2023-06-22T01:03:50;7.28;;;3.45;;
61531;SDS011;47397;48.194;11.632;2023-06-22T01:04:52;5.68;;;3.38;;
61531;SDS011;47397;48.194;11.632;2023-06-22T01:05:52;6.85;;;3.42;;
61531;SDS011;47397;48.194;11.632;2023-06-22T01:07:02;6.97;;;3.60;;
61531;SDS011;47397;48.194;11.632;2023-06-22T01:08:12;5.75;;;3.58;;
61531;SDS011;47397;48.194;11.632;2023-06-22T01:09:25;9.52;;;3.55;;
61531;SDS011;47397;48.194;11.632;2023-06-22T01:10:32;8.27;;;3.53;;
61531;SDS011;47397;48.194;11.632;2023-06-22T01:11:39;6.07;;;3.22;;
61531;SDS011;47397;48.194;11.632;2023-06-22T01:12:44;6.10;;;3.50;;
61531;SDS011;47397;48.194;11.632;2023-06-22T01:13:50;5.32;;;3.28;;
61531;SDS011;47397;48.194;11.632;2023-06-22T01:14:58;5.28;;;3.30;;
61531;SDS011;47397;48.194;11.632;2023-06-22T01:16:05;7.05;;;3.40;;
61531;SDS011;47397;48.194;11.632;2023-06-22T01:17:10;6.65;;;3.65;;
61531;SDS011;47397;48.194;11.632;2023-06-22T01:18:12;6.55;;;3.72;;
61531;SDS011;47397;48.194;11.632;2023-06-22T01:19:20;5.93;;;3.47;;
61531;SDS011;47397;48.194;11.632;2023-06-22T01:20:36;4.78;;;2.88;;
61531;SDS011;47397;48.194;11.632;2023-06-22T01:21:37;5.40;;;3.10;;
61531;SDS011;47397;48.194;11.632;2023-06-22T01:22:41;8.75;;;3.75;;
61531;SDS011;47397;48.194;11.632;2023-06-22T01:23:56;7.13;;;3.33;;
61531;SDS011;47397;48.194;11.632;2023-06-22T01:25:07;5.07;;;3.25;;
61531;SDS011;47397;48.194;11.632;2023-06-22T01:26:13;6.90;;;3.35;;
61531;SDS011;47397;48.194;11.632;2023-06-22T01:27:20;6.25;;;3.08;;
61531;SDS011;47397;48.194;11.632;2023-06-22T01:29:49;6.53;;;3.40;;
61531;SDS011;47397;48.194;11.632;2023-06-22T01:30:51;7.43;;;3.58;;
61531;SDS011;47397;48.194;11.632;2023-06-22T01:31:52;6.93;;;3.22;;
61531;SDS011;47397;48.194;11.632;2023-06-22T01:32:54;7.28;;;3.40;;
61531;SDS011;47397;48.194;11.632;2023-06-22T01:33:57;8.13;;;3.20;;
61531;SDS011;47397;48.194;11.632;2023-06-22T01:35:03;7.32;;;3.60;;
61531;SDS011;47397;48.194;11.632;2023-06-22T01:36:05;5.85;;;3.92;;
61531;SDS011;47397;48.194;11.632;2023-06-22T01:37:07;8.18;;;3.58;;
61531;SDS011;47397;48.194;11.632;2023-06-22T01:38:08;7.13;;;3.83;;
61531;SDS011;47397;48.194;11.632;2023-06-22T01:39:09;4.68;;;3.20;;
61531;SDS011;47397;48.194;11.632;2023-06-22T01:40:11;6.53;;;3.65;;
61531;SDS011;47397;48.194;11.632;2023-06-22T01:41:13;6.30;;;3.28;;
61531;SDS011;47397;48.194;11.632;2023-06-22T01:42:16;6.22;;;3.90;;
61531;SDS011;47397;48.194;11.632;2023-06-22T01:43:17;6.28;;;3.22;;
61531;SDS011;47397;48.194;11.632;2023-06-22T01:44:19;6.40;;;3.67;;
61531;SDS011;47397;48.194;11.632;2023-06-22T01:45:20;5.63;;;3.70;;
61531;SDS011;47397;48.194;11.632;2023-06-22T01:46:21;6.72;;;3.47;;
61531;SDS011;47397;48.194;11.632;2023-06-22T01:47:22;7.20;;;4.00;;
61531;SDS011;47397;48.194;11.632;2023-06-22T01:48:24;6.90;;;4.00;;
61531;SDS011;47397;48.194;11.632;2023-06-22T01:49:25;5.95;;;3.35;;
61531;SDS011;47397;48.194;11.632;2023-06-22T01:50:25;5.95;;;3.92;;
61531;SDS011;47397;48.194;11.632;2023-06-22T01:51:26;6.15;;;3.53;;
61531;SDS011;47397;48.194;11.632;2023-06-22T01:52:26;6.32;;;3.72;;
61531;SDS011;47397;48.194;11.632;2023-06-22T01:53:27;5.88;;;3.70;;
61531;SDS011;47397;48.194;11.632;2023-06-22T01:54:27;5.78;;;3.53;;
61531;SDS011;47397;48.194;11.632;2023-06-22T01:55:28;6.55;;;3.85;;
61531;SDS011;47397;48.194;11.632;2023-06-22T01:56:28;6.07;;;3.58;;
61531;SDS011;47397;48.194;11.632;2023-06-22T01:57:28;5.53;;;3.60;;
61531;SDS011;47397;48.194;11.632;2023-06-22T01:58:29;6.13;;;3.65;;
61531;SDS011;47397;48.194;11.632;2023-06-22T01:59:34;6.10;;;3.53;;
61531;SDS011;47397;48.194;11.632;2023-06-22T02:00:39;8.57;;;3.60;;
61531;SDS011;47397;48.194;11.632;2023-06-22T02:01:43;6.63;;;3.47;;
61531;SDS011;47397;48.194;11.632;2023-06-22T02:02:51;5.07;;;3.35;;
61531;SDS011;47397;48.194;11.632;2023-06-22T02:03:59;5.65;;;3.85;;
61531;SDS011;47397;48.194;11.632;2023-06-22T02:05:05;7.25;;;3.75;;
61531;SDS011;47397;48.194;11.632;2023-06-22T02:06:08;5.78;;;3.80;;
61531;SDS011;47397;48.194;11.632;2023-06-22T02:07:15;5.43;;;3.58;;
61531;SDS011;47397;48.194;11.632;2023-06-22T02:08:19;6.95;;;3.63;;
61531;SDS011;47397;48.194;11.632;2023-06-22T02:09:21;7.90;;;3.35;;
61531;SDS011;47397;48.194;11.632;2023-06-22T02:10:23;6.75;;;3.47;;
61531;SDS011;47397;48.194;11.632;2023-06-22T02:11:24;5.72;;;3.50;;
61531;SDS011;47397;48.194;11.632;2023-06-22T02:12:26;6.63;;;3.60;;
61531;SDS011;47397;48.194;11.632;2023-06-22T02:13:28;5.85;;;3.17;;
61531;SDS011;47397;48.194;11.632;2023-06-22T02:14:28;7.22;;;3.70;;
61531;SDS011;47397;48.194;11.632;2023-06-22T02:15:31;6.90;;;3.45;;
61531;SDS011;47397;48.194;11.632;2023-06-22T02:16:31;9.35;;;4.38;;
61531;SDS011;47397;48.194;11.632;2023-06-22T02:17:33;6.53;;;3.85;;
61531;SDS011;47397;48.194;11.632;2023-06-22T02:18:34;6.20;;;3.80;;
61531;SDS011;47397;48.194;11.632;2023-06-22T02:19:35;7.18;;;3.42;;
61531;SDS011;47397;48.194;11.632;2023-06-22T02:20:37;6.28;;;3.55;;
61531;SDS011;47397;48.194;11.632;2023-06-22T02:21:38;8.35;;;3.80;;
61531;SDS011;47397;48.194;11.632;2023-06-22T02:22:38;6.72;;;3.42;;
61531;SDS011;47397;48.194;11.632;2023-06-22T02:23:38;7.18;;;3.90;;
61531;SDS011;47397;48.194;11.632;2023-06-22T02:24:39;10.15;;;3.67;;
61531;SDS011;47397;48.194;11.632;2023-06-22T02:25:39;6.57;;;3.35;;
61531;SDS011;47397;48.194;11.632;2023-06-22T02:26:40;7.07;;;3.90;;
61531;SDS011;47397;48.194;11.632;2023-06-22T02:27:40;7.32;;;3.47;;
61531;SDS011;47397;48.194;11.632;2023-06-22T02:28:41;6.53;;;3.67;;
61531;SDS011;47397;48.194;11.632;2023-06-22T02:29:41;7.32;;;3.95;;
61531;SDS011;47397;48.194;11.632;2023-06-22T02:30:43;7.03;;;3.75;;
61531;SDS011;47397;48.194;11.632;2023-06-22T02:31:43;8.55;;;3.78;;
61531;SDS011;47397;48.194;11.632;2023-06-22T02:32:44;6.38;;;4.05;;
61531;SDS011;47397;48.194;11.632;2023-06-22T02:33:44;5.20;;;3.42;;
61531;SDS011;47397;48.194;11.632;2023-06-22T02:34:45;7.28;;;3.85;;
61531;SDS011;47397;48.194;11.632;2023-06-22T02:35:45;5.93;;;3.88;;
61531;SDS011;47397;48.194;11.632;2023-06-22T02:36:46;6.57;;;3.58;;
61531;SDS011;47397;48.194;11.632;2023-06-22T02:37:46;7.35;;;3.65;;
61531;SDS011;47397;48.194;11.632;2023-06-22T02:38:47;8.65;;;4.15;;
61531;SDS011;47397;48.194;11.632;2023-06-22T02:39:47;6.65;;;3.25;;
61531;SDS011;47397;48.194;11.632;2023-06-22T02:40:47;8.48;;;3.92;;
61531;SDS011;47397;48.194;11.632;2023-06-22T02:41:48;11.68;;;4.13;;
61531;SDS011;47397;48.194;11.632;2023-06-22T02:42:48;7.88;;;3.63;;
61531;SDS011;47397;48.194;11.632;2023-06-22T02:43:49;7.68;;;3.83;;
61531;SDS011;47397;48.194;11.632;2023-06-22T02:44:49;6.22;;;3.25;;
61531;SDS011;47397;48.194;11.632;2023-06-22T02:45:51;6.40;;;4.03;;
61531;SDS011;47397;48.194;11.632;2023-06-22T02:46:52;6.70;;;4.03;;
61531;SDS011;47397;48.194;11.632;2023-06-22T02:47:52;5.55;;;3.47;;
61531;SDS011;47397;48.194;11.632;2023-06-22T02:48:52;6.53;;;4.07;;
61531;SDS011;47397;48.194;11.632;2023-06-22T02:49:53;7.40;;;3.72;;
61531;SDS011;47397;48.194;11.632;2023-06-22T02:50:53;7.18;;;3.78;;
61531;SDS011;47397;48.194;11.632;2023-06-22T02:51:54;6.50;;;3.85;;
61531;SDS011;47397;48.194;11.632;2023-06-22T02:52:54;7.53;;;4.15;;
61531;SDS011;47397;48.194;11.632;2023-06-22T02:53:54;6.53;;;3.50;;
61531;SDS011;47397;48.194;11.632;2023-06-22T02:54:55;8.82;;;4.07;;
61531;SDS011;47397;48.194;11.632;2023-06-22T02:55:55;6.90;;;3.92;;
61531;SDS011;47397;48.194;11.632;2023-06-22T02:56:56;6.93;;;4.13;;
61531;SDS011;47397;48.194;11.632;2023-06-22T02:57:56;6.60;;;3.67;;
61531;SDS011;47397;48.194;11.632;2023-06-22T02:58:56;6.68;;;3.65;;
61531;SDS011;47397;48.194;11.632;2023-06-22T02:59:57;5.70;;;3.72;;
61531;SDS011;47397;48.194;11.632;2023-06-22T03:00:59;7.45;;;4.20;;
61531;SDS011;47397;48.194;11.632;2023-06-22T03:01:59;7.20;;;3.58;;
61531;SDS011;47397;48.194;11.632;2023-06-22T03:03:00;6.85;;;3.40;;
61531;SDS011;47397;48.194;11.632;2023-06-22T03:04:00;6.15;;;3.72;;
61531;SDS011;47397;48.194;11.632;2023-06-22T03:05:01;6.32;;;3.90;;
61531;SDS011;47397;48.194;11.632;2023-06-22T03:06:01;4.93;;;3.67;;
61531;SDS011;47397;48.194;11.632;2023-06-22T03:07:01;7.60;;;3.58;;
61531;SDS011;47397;48.194;11.632;2023-06-22T03:08:02;5.85;;;3.80;;
61531;SDS011;47397;48.194;11.632;2023-06-22T03:09:03;7.18;;;3.97;;
61531;SDS011;47397;48.194;11.632;2023-06-22T03:10:05;5.93;;;4.03;;
61531;SDS011;47397;48.194;11.632;2023-06-22T03:11:06;6.10;;;3.88;;
61531;SDS011;47397;48.194;11.632;2023-06-22T03:12:07;6.75;;;3.90;;
61531;SDS011;47397;48.194;11.632;2023-06-22T03:13:08;6.78;;;3.83;;
61531;SDS011;47397;48.194;11.632;2023-06-22T03:14:08;5.38;;;3.78;;
61531;SDS011;47397;48.194;11.632;2023-06-22T03:15:10;6.30;;;3.67;;
61531;SDS011;47397;48.194;11.632;2023-06-22T03:16:12;6.35;;;4.13;;
61531;SDS011;47397;48.194;11.632;2023-06-22T03:17:13;6.05;;;4.20;;
61531;SDS011;47397;48.194;11.632;2023-06-22T03:18:13;8.07;;;3.63;;
61531;SDS011;47397;48.194;11.632;2023-06-22T03:19:13;9.43;;;4.38;;
61531;SDS011;47397;48.194;11.632;2023-06-22T03:20:14;7.75;;;4.25;;
61531;SDS011;47397;48.194;11.632;2023-06-22T03:21:15;6.57;;;3.83;;
61531;SDS011;47397;48.194;11.632;2023-06-22T03:22:15;9.07;;;4.18;;
61531;SDS011;47397;48.194;11.632;2023-06-22T03:23:15;8.90;;;3.92;;
61531;SDS011;47397;48.194;11.632;2023-06-22T03:24:16;5.47;;;3.70;;
61531;SDS011;47397;48.194;11.632;2023-06-22T03:25:16;5.93;;;4.22;;
61531;SDS011;47397;48.194;11.632;2023-06-22T03:26:17;7.32;;;4.07;;
61531;SDS011;47397;48.194;11.632;2023-06-22T03:27:18;7.00;;;4.07;;
61531;SDS011;47397;48.194;11.632;2023-06-22T03:28:18;7.10;;;5.05;;
61531;SDS011;47397;48.194;11.632;2023-06-22T03:29:19;7.07;;;4.70;;
61531;SDS011;47397;48.194;11.632;2023-06-22T03:30:19;7.72;;;4.03;;
61531;SDS011;47397;48.194;11.632;2023-06-22T03:31:21;8.38;;;4.53;;
61531;SDS011;47397;48.194;11.632;2023-06-22T03:32:22;7.22;;;4.53;;
61531;SDS011;47397;48.194;11.632;2023-06-22T03:33:22;8.93;;;4.47;;
61531;SDS011;47397;48.194;11.632;2023-06-22T03:34:22;8.23;;;4.53;;
61531;SDS011;47397;48.194;11.632;2023-06-22T03:35:23;6.90;;;4.68;;
61531;SDS011;47397;48.194;11.632;2023-06-22T03:36:23;6.07;;;3.90;;
61531;SDS011;47397;48.194;11.632;2023-06-22T03:37:24;6.35;;;4.63;;
61531;SDS011;47397;48.194;11.632;2023-06-22T03:38:24;8.18;;;5.00;;
61531;SDS011;47397;48.194;11.632;2023-06-22T03:39:25;7.53;;;4.18;;
61531;SDS011;47397;48.194;11.632;2023-06-22T03:40:25;7.60;;;4.78;;
61531;SDS011;47397;48.194;11.632;2023-06-22T03:41:25;8.15;;;4.50;;
61531;SDS011;47397;48.194;11.632;2023-06-22T03:42:26;8.43;;;4.75;;
61531;SDS011;47397;48.194;11.632;2023-06-22T03:43:26;6.38;;;4.32;;
61531;SDS011;47397;48.194;11.632;2023-06-22T03:44:27;8.38;;;4.63;;
61531;SDS011;47397;48.194;11.632;2023-06-22T03:45:27;7.68;;;4.88;;
61531;SDS011;47397;48.194;11.632;2023-06-22T03:46:29;7.10;;;4.32;;
61531;SDS011;47397;48.194;11.632;2023-06-22T03:47:29;8.10;;;4.65;;
61531;SDS011;47397;48.194;11.632;2023-06-22T03:48:30;7.25;;;4.47;;
61531;SDS011;47397;48.194;11.632;2023-06-22T03:49:30;6.90;;;4.80;;
61531;SDS011;47397;48.194;11.632;2023-06-22T03:50:30;9.02;;;4.63;;
61531;SDS011;47397;48.194;11.632;2023-06-22T03:51:32;8.50;;;4.80;;
61531;SDS011;47397;48.194;11.632;2023-06-22T03:52:32;8.73;;;4.88;;
61531;SDS011;47397;48.194;11.632;2023-06-22T03:53:33;9.85;;;5.00;;
61531;SDS011;47397;48.194;11.632;2023-06-22T03:54:33;8.05;;;4.90;;
61531;SDS011;47397;48.194;11.632;2023-06-22T03:55:34;11.13;;;4.70;;
61531;SDS011;47397;48.194;11.632;2023-06-22T03:56:34;8.13;;;4.63;;
61531;SDS011;47397;48.194;11.632;2023-06-22T03:57:35;9.07;;;4.40;;
61531;SDS011;47397;48.194;11.632;2023-06-22T03:58:35;7.35;;;4.70;;
61531;SDS011;47397;48.194;11.632;2023-06-22T03:59:36;9.55;;;5.00;;
61531;SDS011;47397;48.194;11.632;2023-06-22T04:00:36;10.40;;;4.47;;
61531;SDS011;47397;48.194;11.632;2023-06-22T04:01:38;10.73;;;4.97;;
61531;SDS011;47397;48.194;11.632;2023-06-22T04:02:38;6.65;;;4.95;;
61531;SDS011;47397;48.194;11.632;2023-06-22T04:03:39;8.25;;;4.95;;
61531;SDS011;47397;48.194;11.632;2023-06-22T04:04:39;8.07;;;4.97;;
61531;SDS011;47397;48.194;11.632;2023-06-22T04:05:40;7.00;;;4.53;;
61531;SDS011;47397;48.194;11.632;2023-06-22T04:06:40;9.02;;;4.93;;
61531;SDS011;47397;48.194;11.632;2023-06-22T04:07:41;9.60;;;4.82;;
61531;SDS011;47397;48.194;11.632;2023-06-22T04:08:41;7.25;;;4.68;;
61531;SDS011;47397;48.194;11.632;2023-06-22T04:09:41;9.93;;;4.78;;
61531;SDS011;47397;48.194;11.632;2023-06-22T04:10:42;9.43;;;5.10;;
61531;SDS011;47397;48.194;11.632;2023-06-22T04:11:42;8.02;;;4.95;;
61531;SDS011;47397;48.194;11.632;2023-06-22T04:12:43;8.50;;;4.78;;
61531;SDS011;47397;48.194;11.632;2023-06-22T04:13:43;9.93;;;4.60;;
61531;SDS011;47397;48.194;11.632;2023-06-22T04:14:44;6.80;;;4.55;;
61531;SDS011;47397;48.194;11.632;2023-06-22T04:15:44;11.45;;;5.20;;
61531;SDS011;47397;48.194;11.632;2023-06-22T04:16:46;9.77;;;5.13;;
61531;SDS011;47397;48.194;11.632;2023-06-22T04:17:46;7.85;;;4.35;;
61531;SDS011;47397;48.194;11.632;2023-06-22T04:18:47;7.35;;;4.82;;
61531;SDS011;47397;48.194;11.632;2023-06-22T04:19:47;8.85;;;4.38;;
61531;SDS011;47397;48.194;11.632;2023-06-22T04:20:48;7.70;;;4.97;;
61531;SDS011;47397;48.194;11.632;2023-06-22T04:21:48;10.38;;;4.75;;
61531;SDS011;47397;48.194;11.632;2023-06-22T04:22:48;7.78;;;4.22;;
61531;SDS011;47397;48.194;11.632;2023-06-22T04:23:49;7.35;;;4.50;;
61531;SDS011;47397;48.194;11.632;2023-06-22T04:24:49;8.43;;;4.55;;
61531;SDS011;47397;48.194;11.632;2023-06-22T04:25:50;6.63;;;4.63;;
61531;SDS011;47397;48.194;11.632;2023-06-22T04:26:50;10.57;;;4.88;;
61531;SDS011;47397;48.194;11.632;2023-06-22T04:27:50;10.70;;;5.32;;
61531;SDS011;47397;48.194;11.632;2023-06-22T04:28:51;8.70;;;4.80;;
61531;SDS011;47397;48.194;11.632;2023-06-22T04:29:51;8.52;;;5.43;;
61531;SDS011;47397;48.194;11.632;2023-06-22T04:30:52;8.30;;;4.85;;
61531;SDS011;47397;48.194;11.632;2023-06-22T04:31:54;8.85;;;5.30;;
61531;SDS011;47397;48.194;11.632;2023-06-22T04:32:55;8.00;;;4.38;;
61531;SDS011;47397;48.194;11.632;2023-06-22T04:33:55;8.20;;;4.47;;
61531;SDS011;47397;48.194;11.632;2023-06-22T04:34:55;8.35;;;4.85;;
61531;SDS011;47397;48.194;11.632;2023-06-22T04:35:56;9.98;;;4.93;;
61531;SDS011;47397;48.194;11.632;2023-06-22T04:36:57;9.63;;;5.07;;
61531;SDS011;47397;48.194;11.632;2023-06-22T04:37:58;7.45;;;4.28;;
61531;SDS011;47397;48.194;11.632;2023-06-22T04:38:58;8.25;;;4.85;;
61531;SDS011;47397;48.194;11.632;2023-06-22T04:39:59;7.95;;;4.90;;
61531;SDS011;47397;48.194;11.632;2023-06-22T04:40:59;9.07;;;5.03;;
61531;SDS011;47397;48.194;11.632;2023-06-22T04:42:00;8.15;;;4.55;;
61531;SDS011;47397;48.194;11.632;2023-06-22T04:43:00;7.45;;;4.90;;
61531;SDS011;47397;48.194;11.632;2023-06-22T04:44:01;6.88;;;4.57;;
61531;SDS011;47397;48.194;11.632;2023-06-22T04:45:01;9.25;;;4.57;;
61531;SDS011;47397;48.194;11.632;2023-06-22T04:46:02;7.30;;;4.85;;
61531;SDS011;47397;48.194;11.632;2023-06-22T04:47:04;9.27;;;5.03;;
61531;SDS011;47397;48.194;11.632;2023-06-22T04:48:04;9.18;;;5.28;;
61531;SDS011;47397;48.194;11.632;2023-06-22T04:49:05;9.00;;;5.03;;
61531;SDS011;47397;48.194;11.632;2023-06-22T04:50:06;7.93;;;5.30;;
61531;SDS011;47397;48.194;11.632;2023-06-22T04:51:07;6.70;;;4.80;;
61531;SDS011;47397;48.194;11.632;2023-06-22T04:52:08;10.85;;;5.18;;
61531;SDS011;47397;48.194;11.632;2023-06-22T04:53:09;7.50;;;4.60;;
61531;SDS011;47397;48.194;11.632;2023-06-22T04:54:09;8.68;;;5.43;;
61531;SDS011;47397;48.194;11.632;2023-06-22T04:55:10;9.70;;;4.68;;
61531;SDS011;47397;48.194;11.632;2023-06-22T04:56:10;8.15;;;4.70;;
61531;SDS011;47397;48.194;11.632;2023-06-22T04:57:11;7.00;;;4.30;;
61531;SDS011;47397;48.194;11.632;2023-06-22T04:58:11;8.07;;;4.60;;
61531;SDS011;47397;48.194;11.632;2023-06-22T04:59:11;8.00;;;5.00;;
61531;SDS011;47397;48.194;11.632;2023-06-22T05:00:12;8.30;;;5.63;;
61531;SDS011;47397;48.194;11.632;2023-06-22T05:01:14;8.40;;;4.60;;
61531;SDS011;47397;48.194;11.632;2023-06-22T05:02:15;8.32;;;4.68;;
61531;SDS011;47397;48.194;11.632;2023-06-22T05:03:16;9.05;;;4.90;;
61531;SDS011;47397;48.194;11.632;2023-06-22T05:04:16;10.02;;;4.80;;
61531;SDS011;47397;48.194;11.632;2023-06-22T05:05:17;9.07;;;5.00;;
61531;SDS011;47397;48.194;11.632;2023-06-22T05:06:17;8.27;;;4.50;;
61531;SDS011;47397;48.194;11.632;2023-06-22T05:07:18;8.98;;;4.45;;
61531;SDS011;47397;48.194;11.632;2023-06-22T05:08:18;8.90;;;4.63;;
61531;SDS011;47397;48.194;11.632;2023-06-22T05:09:18;9.18;;;3.90;;
61531;SDS011;47397;48.194;11.632;2023-06-22T05:10:19;7.57;;;5.00;;
61531;SDS011;47397;48.194;11.632;2023-06-22T05:11:20;8.27;;;5.05;;
61531;SDS011;47397;48.194;11.632;2023-06-22T05:12:20;7.90;;;4.65;;
61531;SDS011;47397;48.194;11.632;2023-06-22T05:13:20;8.77;;;4.85;;
61531;SDS011;47397;48.194;11.632;2023-06-22T05:14:21;9.07;;;4.65;;
61531;SDS011;47397;48.194;11.632;2023-06-22T05:15:21;8.45;;;4.90;;
61531;SDS011;47397;48.194;11.632;2023-06-22T05:16:22;9.13;;;5.03;;
61531;SDS011;47397;48.194;11.632;2023-06-22T05:17:25;8.35;;;4.32;;
61531;SDS011;47397;48.194;11.632;2023-06-22T05:18:25;7.28;;;4.28;;
61531;SDS011;47397;48.194;11.632;2023-06-22T05:19:26;9.73;;;4.30;;
61531;SDS011;47397;48.194;11.632;2023-06-22T05:20:26;6.72;;;4.65;;
61531;SDS011;47397;48.194;11.632;2023-06-22T05:21:26;6.35;;;4.55;;
61531;SDS011;47397;48.194;11.632;2023-06-22T05:22:27;7.25;;;4.78;;
61531;SDS011;47397;48.194;11.632;2023-06-22T05:23:27;7.88;;;4.05;;
61531;SDS011;47397;48.194;11.632;2023-06-22T05:24:28;8.65;;;4.38;;
61531;SDS011;47397;48.194;11.632;2023-06-22T05:25:28;7.97;;;4.60;;
61531;SDS011;47397;48.194;11.632;2023-06-22T05:26:29;6.68;;;4.43;;
61531;SDS011;47397;48.194;11.632;2023-06-22T05:27:30;7.72;;;4.53;;
61531;SDS011;47397;48.194;11.632;2023-06-22T05:28:31;9.30;;;4.95;;
61531;SDS011;47397;48.194;11.632;2023-06-22T05:29:32;8.63;;;4.93;;
61531;SDS011;47397;48.194;11.632;2023-06-22T05:30:33;7.60;;;4.90;;
61531;SDS011;47397;48.194;11.632;2023-06-22T05:31:33;7.47;;;4.05;;
61531;SDS011;47397;48.194;11.632;2023-06-22T05:32:35;9.68;;;4.82;;
61531;SDS011;47397;48.194;11.632;2023-06-22T05:33:36;10.70;;;4.90;;
61531;SDS011;47397;48.194;11.632;2023-06-22T05:34:36;8.27;;;4.50;;
61531;SDS011;47397;48.194;11.632;2023-06-22T05:35:37;10.73;;;4.70;;
61531;SDS011;47397;48.194;11.632;2023-06-22T05:36:37;11.60;;;4.60;;
61531;SDS011;47397;48.194;11.632;2023-06-22T05:37:38;8.48;;;4.60;;
61531;SDS011;47397;48.194;11.632;2023-06-22T05:38:38;7.35;;;4.32;;
61531;SDS011;47397;48.194;11.632;2023-06-22T05:39:39;8.52;;;4.68;;
61531;SDS011;47397;48.194;11.632;2023-06-22T05:40:39;8.38;;;4.75;;
61531;SDS011;47397;48.194;11.632;2023-06-22T05:41:40;9.05;;;4.45;;
61531;SDS011;47397;48.194;11.632;2023-06-22T05:42:41;9.07;;;4.70;;
61531;SDS011;47397;48.194;11.632;2023-06-22T05:43:41;7.28;;;4.40;;
61531;SDS011;47397;48.194;11.632;2023-06-22T05:44:42;8.52;;;5.10;;
61531;SDS011;47397;48.194;11.632;2023-06-22T05:45:42;6.78;;;4.13;;
61531;SDS011;47397;48.194;11.632;2023-06-22T05:46:43;8.60;;;4.95;;
61531;SDS011;47397;48.194;11.632;2023-06-22T05:47:45;6.50;;;4.80;;
61531;SDS011;47397;48.194;11.632;2023-06-22T05:48:48;7.70;;;4.60;;
61531;SDS011;47397;48.194;11.632;2023-06-22T05:49:48;9.02;;;4.68;;
61531;SDS011;47397;48.194;11.632;2023-06-22T05:50:49;10.55;;;4.95;;
61531;SDS011;47397;48.194;11.632;2023-06-22T05:51:49;7.32;;;4.40;;
61531;SDS011;47397;48.194;11.632;2023-06-22T05:52:50;8.15;;;4.40;;
61531;SDS011;47397;48.194;11.632;2023-06-22T05:53:50;8.75;;;4.35;;
61531;SDS011;47397;48.194;11.632;2023-06-22T05:54:51;9.23;;;4.32;;
61531;SDS011;47397;48.194;11.632;2023-06-22T05:55:51;8.85;;;4.88;;
61531;SDS011;47397;48.194;11.632;2023-06-22T05:56:51;8.82;;;5.20;;
61531;SDS011;47397;48.194;11.632;2023-06-22T05:57:52;7.60;;;4.40;;
61531;SDS011;47397;48.194;11.632;2023-06-22T05:58:52;8.43;;;4.38;;
61531;SDS011;47397;48.194;11.632;2023-06-22T05:59:53;7.32;;;4.82;;
61531;SDS011;47397;48.194;11.632;2023-06-22T06:00:53;9.27;;;4.60;;
61531;SDS011;47397;48.194;11.632;2023-06-22T06:01:54;9.55;;;5.97;;
61531;SDS011;47397;48.194;11.632;2023-06-22T06:02:56;6.88;;;4.93;;
61531;SDS011;47397;48.194;11.632;2023-06-22T06:03:56;7.97;;;4.82;;